sensor_id;sensor_type;location;lat;lon;timestamp;P1;durP1;ratioP1;P2;durP2;ratioP2
5553;SDS011;2800;49.528;8.666;2023-10-19T00:00:35;39.87;;;30.57;;
5553;SDS011;2800;49.528;8.666;2023-10-19T00:03:04;39.37;;;31.17;;
5553;SDS011;2800;49.528;8.666;2023-10-19T00:05:31;43.77;;;32.90;;
5553;SDS011;2800;49.528;8.666;2023-10-19T00:07:58;41.80;;;32.57;;
5553;SDS011;2800;49.528;8.666;2023-10-19T00:10:25;36.60;;;31.50;;
5553;SDS011;2800;49.528;8.666;2023-10-19T00:12:54;43.03;;;32.57;;
5553;SDS011;2800;49.528;8.666;2023-10-19T00:15:29;48.33;;;35.50;;
5553;SDS011;2800;49.528;8.666;2023-10-19T00:17:57;46.10;;;36.40;;
5553;SDS011;2800;49.528;8.666;2023-10-19T00:20:30;45.57;;;35.43;;
5553;SDS011;2800;49.528;8.666;2023-10-19T00:23:15;53.10;;;39.20;;
5553;SDS011;2800;49.528;8.666;2023-10-19T00:25:57;48.03;;;36.73;;
5553;SDS011;2800;49.528;8.666;2023-10-19T00:28:24;43.83;;;34.00;;
5553;SDS011;2800;49.528;8.666;2023-10-19T00:30:53;44.10;;;33.43;;
5553;SDS011;2800;49.528;8.666;2023-10-19T00:33:24;46.37;;;34.50;;
5553;SDS011;2800;49.528;8.666;2023-10-19T00:35:53;43.03;;;31.37;;
5553;SDS011;2800;49.528;8.666;2023-10-19T00:38:26;31.70;;;27.20;;
5553;SDS011;2800;49.528;8.666;2023-10-19T00:40:53;26.30;;;20.80;;
5553;SDS011;2800;49.528;8.666;2023-10-19T00:43:27;23.87;;;19.53;;
5553;SDS011;2800;49.528;8.666;2023-10-19T00:46:08;16.30;;;11.43;;
5553;SDS011;2800;49.528;8.666;2023-10-19T00:48:54;19.40;;;12.60;;
5553;SDS011;2800;49.528;8.666;2023-10-19T00:51:29;15.70;;;12.17;;
5553;SDS011;2800;49.528;8.666;2023-10-19T00:54:05;12.87;;;9.70;;
5553;SDS011;2800;49.528;8.666;2023-10-19T00:56:40;12.53;;;9.90;;
5553;SDS011;2800;49.528;8.666;2023-10-19T00:59:13;12.87;;;9.50;;
5553;SDS011;2800;49.528;8.666;2023-10-19T01:02:11;14.13;;;9.47;;
5553;SDS011;2800;49.528;8.666;2023-10-19T01:04:45;15.13;;;11.63;;
5553;SDS011;2800;49.528;8.666;2023-10-19T01:07:17;16.60;;;10.47;;
5553;SDS011;2800;49.528;8.666;2023-10-19T01:10:01;13.90;;;9.63;;
5553;SDS011;2800;49.528;8.666;2023-10-19T01:12:33;14.40;;;9.90;;
5553;SDS011;2800;49.528;8.666;2023-10-19T01:15:14;13.73;;;9.60;;
5553;SDS011;2800;49.528;8.666;2023-10-19T01:17:47;15.00;;;10.47;;
5553;SDS011;2800;49.528;8.666;2023-10-19T01:20:19;13.97;;;10.43;;
5553;SDS011;2800;49.528;8.666;2023-10-19T01:23:02;12.60;;;10.33;;
5553;SDS011;2800;49.528;8.666;2023-10-19T01:28:07;13.87;;;9.20;;
5553;SDS011;2800;49.528;8.666;2023-10-19T01:30:35;15.60;;;9.60;;
5553;SDS011;2800;49.528;8.666;2023-10-19T01:33:04;12.40;;;9.63;;
5553;SDS011;2800;49.528;8.666;2023-10-19T01:35:37;13.97;;;10.47;;
5553;SDS011;2800;49.528;8.666;2023-10-19T01:38:24;16.87;;;11.47;;
5553;SDS011;2800;49.528;8.666;2023-10-19T01:40:50;16.77;;;12.33;;
5553;SDS011;2800;49.528;8.666;2023-10-19T01:43:16;17.00;;;12.50;;
5553;SDS011;2800;49.528;8.666;2023-10-19T01:45:59;15.33;;;12.53;;
5553;SDS011;2800;49.528;8.666;2023-10-19T01:48:52;20.73;;;14.97;;
5553;SDS011;2800;49.528;8.666;2023-10-19T01:51:20;20.97;;;16.40;;
5553;SDS011;2800;49.528;8.666;2023-10-19T01:53:50;20.70;;;15.60;;
5553;SDS011;2800;49.528;8.666;2023-10-19T01:56:16;22.70;;;16.80;;
5553;SDS011;2800;49.528;8.666;2023-10-19T01:58:43;20.77;;;16.40;;
5553;SDS011;2800;49.528;8.666;2023-10-19T02:01:14;22.40;;;18.87;;
5553;SDS011;2800;49.528;8.666;2023-10-19T02:03:45;21.40;;;18.37;;
5553;SDS011;2800;49.528;8.666;2023-10-19T02:06:13;20.87;;;17.73;;
5553;SDS011;2800;49.528;8.666;2023-10-19T02:08:45;21.77;;;16.83;;
5553;SDS011;2800;49.528;8.666;2023-10-19T02:11:16;20.37;;;17.50;;
5553;SDS011;2800;49.528;8.666;2023-10-19T02:13:48;22.10;;;17.53;;
5553;SDS011;2800;49.528;8.666;2023-10-19T02:16:16;21.83;;;16.80;;
5553;SDS011;2800;49.528;8.666;2023-10-19T02:18:45;23.33;;;17.70;;
5553;SDS011;2800;49.528;8.666;2023-10-19T02:21:10;21.77;;;17.60;;
5553;SDS011;2800;49.528;8.666;2023-10-19T02:23:39;21.90;;;17.73;;
5553;SDS011;2800;49.528;8.666;2023-10-19T02:26:06;21.17;;;15.50;;
5553;SDS011;2800;49.528;8.666;2023-10-19T02:28:38;20.07;;;16.00;;
5553;SDS011;2800;49.528;8.666;2023-10-19T02:31:04;19.70;;;15.33;;
5553;SDS011;2800;49.528;8.666;2023-10-19T02:33:40;19.73;;;14.43;;
5553;SDS011;2800;49.528;8.666;2023-10-19T02:36:07;20.73;;;15.20;;
5553;SDS011;2800;49.528;8.666;2023-10-19T02:38:38;21.97;;;15.37;;
5553;SDS011;2800;49.528;8.666;2023-10-19T02:41:09;21.30;;;15.30;;
5553;SDS011;2800;49.528;8.666;2023-10-19T02:43:35;22.47;;;16.77;;
5553;SDS011;2800;49.528;8.666;2023-10-19T02:46:01;21.43;;;16.00;;
5553;SDS011;2800;49.528;8.666;2023-10-19T02:48:28;21.30;;;16.20;;
5553;SDS011;2800;49.528;8.666;2023-10-19T02:50:54;21.13;;;15.80;;
5553;SDS011;2800;49.528;8.666;2023-10-19T02:53:19;20.47;;;16.20;;
5553;SDS011;2800;49.528;8.666;2023-10-19T02:55:45;24.73;;;15.83;;
5553;SDS011;2800;49.528;8.666;2023-10-19T02:58:10;21.57;;;16.30;;
5553;SDS011;2800;49.528;8.666;2023-10-19T03:00:38;22.03;;;17.20;;
5553;SDS011;2800;49.528;8.666;2023-10-19T03:03:05;21.90;;;16.47;;
5553;SDS011;2800;49.528;8.666;2023-10-19T03:05:31;19.80;;;15.20;;
5553;SDS011;2800;49.528;8.666;2023-10-19T03:07:59;22.40;;;16.73;;
5553;SDS011;2800;49.528;8.666;2023-10-19T03:10:30;20.83;;;15.33;;
5553;SDS011;2800;49.528;8.666;2023-10-19T03:13:06;19.17;;;15.83;;
5553;SDS011;2800;49.528;8.666;2023-10-19T03:15:33;18.97;;;15.07;;
5553;SDS011;2800;49.528;8.666;2023-10-19T03:17:58;21.77;;;17.03;;
5553;SDS011;2800;49.528;8.666;2023-10-19T03:20:26;22.60;;;16.27;;
5553;SDS011;2800;49.528;8.666;2023-10-19T03:22:58;24.80;;;17.00;;
5553;SDS011;2800;49.528;8.666;2023-10-19T03:25:26;20.40;;;16.77;;
5553;SDS011;2800;49.528;8.666;2023-10-19T03:28:10;24.87;;;18.00;;
5553;SDS011;2800;49.528;8.666;2023-10-19T03:30:36;20.10;;;17.43;;
5553;SDS011;2800;49.528;8.666;2023-10-19T03:33:05;23.97;;;18.10;;
5553;SDS011;2800;49.528;8.666;2023-10-19T03:35:35;19.80;;;17.40;;
5553;SDS011;2800;49.528;8.666;2023-10-19T03:38:02;24.20;;;17.73;;
5553;SDS011;2800;49.528;8.666;2023-10-19T03:40:33;22.23;;;17.53;;
5553;SDS011;2800;49.528;8.666;2023-10-19T03:43:00;24.43;;;18.67;;
5553;SDS011;2800;49.528;8.666;2023-10-19T03:45:30;22.13;;;17.30;;
5553;SDS011;2800;49.528;8.666;2023-10-19T03:47:58;25.37;;;16.10;;
5553;SDS011;2800;49.528;8.666;2023-10-19T03:50:31;23.13;;;16.60;;
5553;SDS011;2800;49.528;8.666;2023-10-19T03:52:58;19.43;;;14.73;;
5553;SDS011;2800;49.528;8.666;2023-10-19T03:55:23;22.90;;;15.17;;
5553;SDS011;2800;49.528;8.666;2023-10-19T03:57:49;21.57;;;14.60;;
5553;SDS011;2800;49.528;8.666;2023-10-19T04:00:19;19.33;;;13.67;;
5553;SDS011;2800;49.528;8.666;2023-10-19T04:02:49;25.10;;;12.87;;
5553;SDS011;2800;49.528;8.666;2023-10-19T04:05:20;15.90;;;10.90;;
5553;SDS011;2800;49.528;8.666;2023-10-19T04:07:46;19.37;;;10.67;;
5553;SDS011;2800;49.528;8.666;2023-10-19T04:10:15;14.50;;;9.00;;
5553;SDS011;2800;49.528;8.666;2023-10-19T04:13:03;14.30;;;9.37;;
5553;SDS011;2800;49.528;8.666;2023-10-19T04:15:29;13.20;;;9.03;;
5553;SDS011;2800;49.528;8.666;2023-10-19T04:17:58;12.80;;;8.70;;
5553;SDS011;2800;49.528;8.666;2023-10-19T04:20:25;25.93;;;9.53;;
5553;SDS011;2800;49.528;8.666;2023-10-19T04:22:55;12.93;;;7.60;;
5553;SDS011;2800;49.528;8.666;2023-10-19T04:25:31;12.10;;;6.57;;
5553;SDS011;2800;49.528;8.666;2023-10-19T04:27:56;13.73;;;7.20;;
5553;SDS011;2800;49.528;8.666;2023-10-19T04:30:22;12.07;;;7.10;;
5553;SDS011;2800;49.528;8.666;2023-10-19T04:32:48;12.27;;;6.70;;
5553;SDS011;2800;49.528;8.666;2023-10-19T04:35:14;12.10;;;6.70;;
5553;SDS011;2800;49.528;8.666;2023-10-19T04:37:46;11.83;;;7.20;;
5553;SDS011;2800;49.528;8.666;2023-10-19T04:40:19;12.80;;;6.73;;
5553;SDS011;2800;49.528;8.666;2023-10-19T04:42:45;10.57;;;6.80;;
5553;SDS011;2800;49.528;8.666;2023-10-19T04:45:11;13.93;;;7.27;;
5553;SDS011;2800;49.528;8.666;2023-10-19T04:47:37;11.43;;;6.57;;
5553;SDS011;2800;49.528;8.666;2023-10-19T04:50:04;13.37;;;6.93;;
5553;SDS011;2800;49.528;8.666;2023-10-19T04:52:30;16.37;;;7.57;;
5553;SDS011;2800;49.528;8.666;2023-10-19T04:54:57;10.77;;;7.27;;
5553;SDS011;2800;49.528;8.666;2023-10-19T04:57:23;15.77;;;7.10;;
5553;SDS011;2800;49.528;8.666;2023-10-19T04:59:49;11.23;;;6.43;;
5553;SDS011;2800;49.528;8.666;2023-10-19T05:02:15;10.50;;;7.30;;
5553;SDS011;2800;49.528;8.666;2023-10-19T05:04:40;14.40;;;8.40;;
5553;SDS011;2800;49.528;8.666;2023-10-19T05:07:06;12.70;;;8.90;;
5553;SDS011;2800;49.528;8.666;2023-10-19T05:09:36;13.37;;;9.20;;
5553;SDS011;2800;49.528;8.666;2023-10-19T05:12:04;16.13;;;9.50;;
5553;SDS011;2800;49.528;8.666;2023-10-19T05:14:34;11.77;;;8.80;;
5553;SDS011;2800;49.528;8.666;2023-10-19T05:17:00;14.93;;;9.83;;
5553;SDS011;2800;49.528;8.666;2023-10-19T05:19:33;12.40;;;8.80;;
5553;SDS011;2800;49.528;8.666;2023-10-19T05:22:00;16.43;;;8.63;;
5553;SDS011;2800;49.528;8.666;2023-10-19T05:24:26;15.00;;;8.80;;
5553;SDS011;2800;49.528;8.666;2023-10-19T05:26:52;13.93;;;8.60;;
5553;SDS011;2800;49.528;8.666;2023-10-19T05:29:18;14.10;;;9.17;;
5553;SDS011;2800;49.528;8.666;2023-10-19T05:31:44;14.00;;;9.00;;
5553;SDS011;2800;49.528;8.666;2023-10-19T05:34:10;16.97;;;9.20;;
5553;SDS011;2800;49.528;8.666;2023-10-19T05:36:36;14.03;;;8.30;;
5553;SDS011;2800;49.528;8.666;2023-10-19T05:39:01;15.23;;;8.70;;
5553;SDS011;2800;49.528;8.666;2023-10-19T05:41:29;12.73;;;7.87;;
5553;SDS011;2800;49.528;8.666;2023-10-19T05:43:56;14.73;;;8.00;;
5553;SDS011;2800;49.528;8.666;2023-10-19T05:46:22;14.17;;;8.03;;
5553;SDS011;2800;49.528;8.666;2023-10-19T05:48:50;15.33;;;8.77;;
5553;SDS011;2800;49.528;8.666;2023-10-19T05:51:16;18.93;;;10.17;;
5553;SDS011;2800;49.528;8.666;2023-10-19T05:53:42;14.90;;;9.80;;
5553;SDS011;2800;49.528;8.666;2023-10-19T05:56:09;19.07;;;9.33;;
5553;SDS011;2800;49.528;8.666;2023-10-19T05:58:35;16.30;;;10.13;;
5553;SDS011;2800;49.528;8.666;2023-10-19T06:01:01;17.40;;;9.60;;
5553;SDS011;2800;49.528;8.666;2023-10-19T06:03:27;14.20;;;9.83;;
5553;SDS011;2800;49.528;8.666;2023-10-19T06:05:53;16.83;;;9.30;;
5553;SDS011;2800;49.528;8.666;2023-10-19T06:08:21;15.00;;;9.60;;
5553;SDS011;2800;49.528;8.666;2023-10-19T06:10:50;12.63;;;8.97;;
5553;SDS011;2800;49.528;8.666;2023-10-19T06:13:16;15.33;;;9.43;;
5553;SDS011;2800;49.528;8.666;2023-10-19T06:15:42;15.30;;;9.67;;
5553;SDS011;2800;49.528;8.666;2023-10-19T06:18:08;16.77;;;9.77;;
5553;SDS011;2800;49.528;8.666;2023-10-19T06:20:34;16.30;;;9.50;;
5553;SDS011;2800;49.528;8.666;2023-10-19T06:22:59;16.53;;;9.90;;
5553;SDS011;2800;49.528;8.666;2023-10-19T06:25:29;19.67;;;10.10;;
5553;SDS011;2800;49.528;8.666;2023-10-19T06:27:55;23.90;;;12.60;;
5553;SDS011;2800;49.528;8.666;2023-10-19T06:30:23;17.23;;;10.70;;
5553;SDS011;2800;49.528;8.666;2023-10-19T06:35:15;17.83;;;10.30;;
5553;SDS011;2800;49.528;8.666;2023-10-19T06:37:42;35.50;;;24.40;;
5553;SDS011;2800;49.528;8.666;2023-10-19T06:40:08;29.20;;;18.77;;
5553;SDS011;2800;49.528;8.666;2023-10-19T06:42:36;14.23;;;10.10;;
5553;SDS011;2800;49.528;8.666;2023-10-19T06:45:05;32.30;;;21.50;;
5553;SDS011;2800;49.528;8.666;2023-10-19T06:47:32;14.90;;;8.70;;
5553;SDS011;2800;49.528;8.666;2023-10-19T06:50:02;14.50;;;8.00;;
5553;SDS011;2800;49.528;8.666;2023-10-19T06:52:30;14.50;;;8.10;;
5553;SDS011;2800;49.528;8.666;2023-10-19T06:54:57;16.93;;;9.93;;
5553;SDS011;2800;49.528;8.666;2023-10-19T06:57:23;28.50;;;13.53;;
5553;SDS011;2800;49.528;8.666;2023-10-19T06:59:48;27.10;;;11.80;;
5553;SDS011;2800;49.528;8.666;2023-10-19T07:02:14;15.40;;;8.57;;
5553;SDS011;2800;49.528;8.666;2023-10-19T07:04:39;16.63;;;8.17;;
5553;SDS011;2800;49.528;8.666;2023-10-19T07:07:04;13.87;;;7.30;;
5553;SDS011;2800;49.528;8.666;2023-10-19T07:09:30;12.40;;;7.43;;
5553;SDS011;2800;49.528;8.666;2023-10-19T07:11:56;11.37;;;6.60;;
5553;SDS011;2800;49.528;8.666;2023-10-19T07:14:22;10.53;;;6.20;;
5553;SDS011;2800;49.528;8.666;2023-10-19T07:16:48;12.10;;;7.13;;
5553;SDS011;2800;49.528;8.666;2023-10-19T07:19:15;12.30;;;6.77;;
5553;SDS011;2800;49.528;8.666;2023-10-19T07:21:41;11.03;;;6.90;;
5553;SDS011;2800;49.528;8.666;2023-10-19T07:24:08;11.10;;;6.40;;
5553;SDS011;2800;49.528;8.666;2023-10-19T07:26:36;16.10;;;7.27;;
5553;SDS011;2800;49.528;8.666;2023-10-19T07:29:16;13.30;;;7.00;;
5553;SDS011;2800;49.528;8.666;2023-10-19T07:31:41;13.13;;;6.43;;
5553;SDS011;2800;49.528;8.666;2023-10-19T07:34:07;15.67;;;7.53;;
5553;SDS011;2800;49.528;8.666;2023-10-19T07:36:37;10.00;;;5.83;;
5553;SDS011;2800;49.528;8.666;2023-10-19T07:39:03;15.90;;;6.30;;
5553;SDS011;2800;49.528;8.666;2023-10-19T07:41:29;12.13;;;6.17;;
5553;SDS011;2800;49.528;8.666;2023-10-19T07:44:01;10.97;;;6.20;;
5553;SDS011;2800;49.528;8.666;2023-10-19T07:46:26;12.33;;;6.43;;
5553;SDS011;2800;49.528;8.666;2023-10-19T07:48:53;12.37;;;7.13;;
5553;SDS011;2800;49.528;8.666;2023-10-19T07:51:19;11.80;;;6.17;;
5553;SDS011;2800;49.528;8.666;2023-10-19T07:53:45;10.63;;;6.00;;
5553;SDS011;2800;49.528;8.666;2023-10-19T07:56:10;10.07;;;5.90;;
5553;SDS011;2800;49.528;8.666;2023-10-19T07:58:36;10.27;;;6.50;;
5553;SDS011;2800;49.528;8.666;2023-10-19T08:01:01;9.33;;;5.17;;
5553;SDS011;2800;49.528;8.666;2023-10-19T08:03:27;10.17;;;4.00;;
5553;SDS011;2800;49.528;8.666;2023-10-19T08:05:52;8.80;;;3.57;;
5553;SDS011;2800;49.528;8.666;2023-10-19T08:08:19;10.60;;;4.13;;
5553;SDS011;2800;49.528;8.666;2023-10-19T08:10:44;16.87;;;5.33;;
5553;SDS011;2800;49.528;8.666;2023-10-19T08:13:10;12.93;;;5.60;;
5553;SDS011;2800;49.528;8.666;2023-10-19T08:15:37;11.70;;;6.00;;
5553;SDS011;2800;49.528;8.666;2023-10-19T08:18:03;10.67;;;5.60;;
5553;SDS011;2800;49.528;8.666;2023-10-19T08:20:30;12.57;;;5.40;;
5553;SDS011;2800;49.528;8.666;2023-10-19T08:22:57;11.50;;;4.83;;
5553;SDS011;2800;49.528;8.666;2023-10-19T08:25:23;8.67;;;4.63;;
5553;SDS011;2800;49.528;8.666;2023-10-19T08:27:52;13.70;;;4.87;;
5553;SDS011;2800;49.528;8.666;2023-10-19T08:30:21;9.80;;;5.40;;
5553;SDS011;2800;49.528;8.666;2023-10-19T08:32:47;12.30;;;5.27;;
5553;SDS011;2800;49.528;8.666;2023-10-19T08:35:14;10.87;;;5.40;;
5553;SDS011;2800;49.528;8.666;2023-10-19T08:37:45;8.87;;;5.00;;
5553;SDS011;2800;49.528;8.666;2023-10-19T08:40:12;9.13;;;5.07;;
5553;SDS011;2800;49.528;8.666;2023-10-19T08:42:40;10.63;;;4.40;;
5553;SDS011;2800;49.528;8.666;2023-10-19T08:45:10;14.40;;;5.00;;
5553;SDS011;2800;49.528;8.666;2023-10-19T08:50:27;9.70;;;4.10;;
5553;SDS011;2800;49.528;8.666;2023-10-19T08:52:54;9.53;;;4.30;;
5553;SDS011;2800;49.528;8.666;2023-10-19T08:55:21;12.03;;;4.10;;
5553;SDS011;2800;49.528;8.666;2023-10-19T08:57:48;10.30;;;4.17;;
5553;SDS011;2800;49.528;8.666;2023-10-19T09:00:15;10.60;;;4.83;;
5553;SDS011;2800;49.528;8.666;2023-10-19T09:02:47;9.10;;;4.30;;
5553;SDS011;2800;49.528;8.666;2023-10-19T09:05:13;15.73;;;5.30;;
5553;SDS011;2800;49.528;8.666;2023-10-19T09:07:47;11.00;;;4.60;;
5553;SDS011;2800;49.528;8.666;2023-10-19T09:10:19;11.97;;;4.77;;
5553;SDS011;2800;49.528;8.666;2023-10-19T09:15:33;8.40;;;4.07;;
5553;SDS011;2800;49.528;8.666;2023-10-19T09:20:39;10.90;;;4.07;;
5553;SDS011;2800;49.528;8.666;2023-10-19T09:23:07;8.40;;;4.00;;
5553;SDS011;2800;49.528;8.666;2023-10-19T09:25:32;9.33;;;3.67;;
5553;SDS011;2800;49.528;8.666;2023-10-19T09:28:00;8.80;;;4.30;;
5553;SDS011;2800;49.528;8.666;2023-10-19T09:30:27;8.77;;;4.53;;
5553;SDS011;2800;49.528;8.666;2023-10-19T09:32:56;12.57;;;4.97;;
5553;SDS011;2800;49.528;8.666;2023-10-19T09:35:23;13.80;;;5.63;;
5553;SDS011;2800;49.528;8.666;2023-10-19T09:37:52;8.63;;;4.27;;
5553;SDS011;2800;49.528;8.666;2023-10-19T09:40:21;11.17;;;5.93;;
5553;SDS011;2800;49.528;8.666;2023-10-19T09:42:49;11.60;;;6.83;;
5553;SDS011;2800;49.528;8.666;2023-10-19T09:45:21;10.27;;;5.40;;
5553;SDS011;2800;49.528;8.666;2023-10-19T09:47:53;7.33;;;3.87;;
5553;SDS011;2800;49.528;8.666;2023-10-19T09:50:19;13.10;;;4.60;;
5553;SDS011;2800;49.528;8.666;2023-10-19T09:52:45;10.90;;;5.70;;
5553;SDS011;2800;49.528;8.666;2023-10-19T09:55:17;8.40;;;4.03;;
5553;SDS011;2800;49.528;8.666;2023-10-19T09:57:50;10.43;;;4.37;;
5553;SDS011;2800;49.528;8.666;2023-10-19T10:00:20;8.60;;;4.50;;
5553;SDS011;2800;49.528;8.666;2023-10-19T10:02:49;8.37;;;4.13;;
5553;SDS011;2800;49.528;8.666;2023-10-19T10:10:47;11.93;;;4.87;;
5553;SDS011;2800;49.528;8.666;2023-10-19T10:15:55;11.00;;;4.40;;
5553;SDS011;2800;49.528;8.666;2023-10-19T10:18:25;7.67;;;3.53;;
5553;SDS011;2800;49.528;8.666;2023-10-19T10:23:37;9.37;;;4.10;;
5553;SDS011;2800;49.528;8.666;2023-10-19T10:26:05;11.90;;;4.83;;
5553;SDS011;2800;49.528;8.666;2023-10-19T10:28:33;7.13;;;3.40;;
5553;SDS011;2800;49.528;8.666;2023-10-19T10:31:06;6.77;;;3.63;;
5553;SDS011;2800;49.528;8.666;2023-10-19T10:33:42;10.70;;;3.90;;
5553;SDS011;2800;49.528;8.666;2023-10-19T10:36:10;7.57;;;3.53;;
5553;SDS011;2800;49.528;8.666;2023-10-19T10:38:36;7.70;;;3.70;;
5553;SDS011;2800;49.528;8.666;2023-10-19T10:41:03;8.50;;;3.17;;
5553;SDS011;2800;49.528;8.666;2023-10-19T10:43:29;9.37;;;3.30;;
5553;SDS011;2800;49.528;8.666;2023-10-19T10:46:07;6.93;;;3.60;;
5553;SDS011;2800;49.528;8.666;2023-10-19T10:48:33;9.43;;;3.57;;
5553;SDS011;2800;49.528;8.666;2023-10-19T10:51:14;6.50;;;3.30;;
5553;SDS011;2800;49.528;8.666;2023-10-19T10:53:51;10.03;;;3.53;;
5553;SDS011;2800;49.528;8.666;2023-10-19T10:56:21;7.10;;;3.50;;
5553;SDS011;2800;49.528;8.666;2023-10-19T10:58:48;9.27;;;2.87;;
5553;SDS011;2800;49.528;8.666;2023-10-19T11:01:14;9.23;;;4.53;;
5553;SDS011;2800;49.528;8.666;2023-10-19T11:03:41;9.57;;;4.63;;
5553;SDS011;2800;49.528;8.666;2023-10-19T11:06:11;20.00;;;12.73;;
5553;SDS011;2800;49.528;8.666;2023-10-19T11:08:37;53.87;;;36.70;;
5553;SDS011;2800;49.528;8.666;2023-10-19T11:11:07;27.97;;;17.00;;
5553;SDS011;2800;49.528;8.666;2023-10-19T11:13:37;16.93;;;7.50;;
5553;SDS011;2800;49.528;8.666;2023-10-19T11:16:04;8.43;;;4.07;;
5553;SDS011;2800;49.528;8.666;2023-10-19T11:18:40;10.87;;;4.00;;
5553;SDS011;2800;49.528;8.666;2023-10-19T11:21:11;8.73;;;4.20;;
5553;SDS011;2800;49.528;8.666;2023-10-19T11:26:07;11.27;;;3.60;;
5553;SDS011;2800;49.528;8.666;2023-10-19T11:28:34;9.37;;;3.90;;
5553;SDS011;2800;49.528;8.666;2023-10-19T11:31:16;8.50;;;3.53;;
5553;SDS011;2800;49.528;8.666;2023-10-19T11:33:44;9.47;;;4.03;;
5553;SDS011;2800;49.528;8.666;2023-10-19T11:36:11;10.43;;;4.80;;
5553;SDS011;2800;49.528;8.666;2023-10-19T11:38:38;11.40;;;4.80;;
5553;SDS011;2800;49.528;8.666;2023-10-19T11:41:05;10.03;;;7.10;;
5553;SDS011;2800;49.528;8.666;2023-10-19T11:43:30;9.33;;;6.23;;
5553;SDS011;2800;49.528;8.666;2023-10-19T11:45:56;10.13;;;4.40;;
5553;SDS011;2800;49.528;8.666;2023-10-19T11:48:22;9.40;;;4.23;;
5553;SDS011;2800;49.528;8.666;2023-10-19T11:50:47;12.83;;;4.17;;
5553;SDS011;2800;49.528;8.666;2023-10-19T11:53:13;11.87;;;6.57;;
5553;SDS011;2800;49.528;8.666;2023-10-19T11:55:38;10.33;;;5.00;;
5553;SDS011;2800;49.528;8.666;2023-10-19T11:58:06;10.13;;;5.70;;
5553;SDS011;2800;49.528;8.666;2023-10-19T12:00:36;8.70;;;4.20;;
5553;SDS011;2800;49.528;8.666;2023-10-19T12:03:03;9.87;;;4.10;;
5553;SDS011;2800;49.528;8.666;2023-10-19T12:05:29;8.07;;;4.50;;
5553;SDS011;2800;49.528;8.666;2023-10-19T12:07:55;8.10;;;3.90;;
5553;SDS011;2800;49.528;8.666;2023-10-19T12:10:21;8.80;;;4.70;;
5553;SDS011;2800;49.528;8.666;2023-10-19T12:12:54;13.73;;;6.83;;
5553;SDS011;2800;49.528;8.666;2023-10-19T12:15:21;11.00;;;6.10;;
5553;SDS011;2800;49.528;8.666;2023-10-19T12:17:47;9.70;;;5.33;;
5553;SDS011;2800;49.528;8.666;2023-10-19T12:20:15;16.90;;;8.80;;
5553;SDS011;2800;49.528;8.666;2023-10-19T12:22:41;217.47;;;124.27;;
5553;SDS011;2800;49.528;8.666;2023-10-19T12:25:07;77.87;;;46.00;;
5553;SDS011;2800;49.528;8.666;2023-10-19T12:27:33;19.50;;;10.63;;
5553;SDS011;2800;49.528;8.666;2023-10-19T12:29:58;9.90;;;4.97;;
5553;SDS011;2800;49.528;8.666;2023-10-19T12:32:24;8.97;;;4.07;;
5553;SDS011;2800;49.528;8.666;2023-10-19T12:34:51;9.70;;;4.70;;
5553;SDS011;2800;49.528;8.666;2023-10-19T12:37:22;9.07;;;4.57;;
5553;SDS011;2800;49.528;8.666;2023-10-19T12:39:49;15.50;;;5.40;;
5553;SDS011;2800;49.528;8.666;2023-10-19T12:42:17;9.50;;;5.37;;
5553;SDS011;2800;49.528;8.666;2023-10-19T12:44:43;9.93;;;5.97;;
5553;SDS011;2800;49.528;8.666;2023-10-19T12:47:09;14.53;;;7.13;;
5553;SDS011;2800;49.528;8.666;2023-10-19T12:49:38;14.07;;;6.90;;
5553;SDS011;2800;49.528;8.666;2023-10-19T12:52:04;11.27;;;7.03;;
5553;SDS011;2800;49.528;8.666;2023-10-19T12:54:32;12.83;;;7.43;;
5553;SDS011;2800;49.528;8.666;2023-10-19T12:56:59;11.83;;;8.03;;
5553;SDS011;2800;49.528;8.666;2023-10-19T12:59:25;16.53;;;8.60;;
5553;SDS011;2800;49.528;8.666;2023-10-19T13:01:50;12.80;;;9.60;;
5553;SDS011;2800;49.528;8.666;2023-10-19T13:04:19;18.37;;;9.20;;
5553;SDS011;2800;49.528;8.666;2023-10-19T13:06:45;20.77;;;10.87;;
5553;SDS011;2800;49.528;8.666;2023-10-19T13:09:14;18.47;;;11.63;;
5553;SDS011;2800;49.528;8.666;2023-10-19T13:11:46;21.83;;;12.63;;
5553;SDS011;2800;49.528;8.666;2023-10-19T13:14:18;16.13;;;11.70;;
5553;SDS011;2800;49.528;8.666;2023-10-19T13:16:44;15.83;;;12.03;;
5553;SDS011;2800;49.528;8.666;2023-10-19T13:19:10;18.07;;;12.17;;
5553;SDS011;2800;49.528;8.666;2023-10-19T13:21:40;17.33;;;12.50;;
5553;SDS011;2800;49.528;8.666;2023-10-19T13:24:07;19.77;;;13.77;;
5553;SDS011;2800;49.528;8.666;2023-10-19T13:26:33;23.20;;;13.20;;
5553;SDS011;2800;49.528;8.666;2023-10-19T13:28:59;20.40;;;13.90;;
5553;SDS011;2800;49.528;8.666;2023-10-19T13:31:25;21.10;;;12.70;;
5553;SDS011;2800;49.528;8.666;2023-10-19T13:33:51;19.37;;;13.13;;
5553;SDS011;2800;49.528;8.666;2023-10-19T13:36:17;21.13;;;12.70;;
5553;SDS011;2800;49.528;8.666;2023-10-19T13:38:44;21.00;;;13.10;;
5553;SDS011;2800;49.528;8.666;2023-10-19T13:41:10;22.50;;;13.40;;
5553;SDS011;2800;49.528;8.666;2023-10-19T13:43:36;17.83;;;13.90;;
5553;SDS011;2800;49.528;8.666;2023-10-19T13:46:04;20.53;;;13.80;;
5553;SDS011;2800;49.528;8.666;2023-10-19T13:48:30;18.47;;;14.00;;
5553;SDS011;2800;49.528;8.666;2023-10-19T13:50:59;22.13;;;14.27;;
5553;SDS011;2800;49.528;8.666;2023-10-19T13:53:37;22.10;;;14.60;;
5553;SDS011;2800;49.528;8.666;2023-10-19T13:56:06;21.10;;;14.10;;
5553;SDS011;2800;49.528;8.666;2023-10-19T13:58:34;20.27;;;14.60;;
5553;SDS011;2800;49.528;8.666;2023-10-19T14:00:59;23.33;;;15.00;;
5553;SDS011;2800;49.528;8.666;2023-10-19T14:03:25;18.13;;;14.50;;
5553;SDS011;2800;49.528;8.666;2023-10-19T14:05:51;26.40;;;16.03;;
5553;SDS011;2800;49.528;8.666;2023-10-19T14:08:20;22.03;;;14.90;;
5553;SDS011;2800;49.528;8.666;2023-10-19T14:10:46;19.60;;;14.90;;
5553;SDS011;2800;49.528;8.666;2023-10-19T14:13:13;18.77;;;14.03;;
5553;SDS011;2800;49.528;8.666;2023-10-19T14:15:39;66.97;;;36.40;;
5553;SDS011;2800;49.528;8.666;2023-10-19T14:18:05;37.80;;;25.20;;
5553;SDS011;2800;49.528;8.666;2023-10-19T14:20:31;24.67;;;16.47;;
5553;SDS011;2800;49.528;8.666;2023-10-19T14:22:59;19.93;;;14.13;;
5553;SDS011;2800;49.528;8.666;2023-10-19T14:25:25;27.10;;;18.30;;
5553;SDS011;2800;49.528;8.666;2023-10-19T14:27:52;24.40;;;16.80;;
5553;SDS011;2800;49.528;8.666;2023-10-19T14:30:23;17.63;;;14.10;;
5553;SDS011;2800;49.528;8.666;2023-10-19T14:32:49;22.17;;;14.53;;
5553;SDS011;2800;49.528;8.666;2023-10-19T14:35:16;24.53;;;15.30;;
5553;SDS011;2800;49.528;8.666;2023-10-19T14:37:44;15.97;;;10.53;;
5553;SDS011;2800;49.528;8.666;2023-10-19T14:40:13;12.90;;;8.80;;
5553;SDS011;2800;49.528;8.666;2023-10-19T14:42:45;7.93;;;5.10;;
5553;SDS011;2800;49.528;8.666;2023-10-19T14:45:12;10.33;;;4.80;;
5553;SDS011;2800;49.528;8.666;2023-10-19T14:47:39;12.30;;;4.70;;
5553;SDS011;2800;49.528;8.666;2023-10-19T14:50:15;9.50;;;5.17;;
5553;SDS011;2800;49.528;8.666;2023-10-19T14:52:43;11.60;;;4.50;;
5553;SDS011;2800;49.528;8.666;2023-10-19T14:55:10;10.10;;;4.50;;
5553;SDS011;2800;49.528;8.666;2023-10-19T14:57:37;8.27;;;4.20;;
5553;SDS011;2800;49.528;8.666;2023-10-19T15:00:04;16.60;;;5.77;;
5553;SDS011;2800;49.528;8.666;2023-10-19T15:02:46;14.73;;;6.63;;
5553;SDS011;2800;49.528;8.666;2023-10-19T15:05:12;12.03;;;4.47;;
5553;SDS011;2800;49.528;8.666;2023-10-19T15:07:39;7.00;;;3.63;;
5553;SDS011;2800;49.528;8.666;2023-10-19T15:10:07;11.97;;;6.67;;
5553;SDS011;2800;49.528;8.666;2023-10-19T15:12:35;14.50;;;7.83;;
5553;SDS011;2800;49.528;8.666;2023-10-19T15:15:01;8.40;;;4.57;;
5553;SDS011;2800;49.528;8.666;2023-10-19T15:17:27;6.70;;;3.90;;
5553;SDS011;2800;49.528;8.666;2023-10-19T15:19:52;9.30;;;4.30;;
5553;SDS011;2800;49.528;8.666;2023-10-19T15:22:18;6.97;;;3.90;;
5553;SDS011;2800;49.528;8.666;2023-10-19T15:24:44;8.43;;;4.53;;
5553;SDS011;2800;49.528;8.666;2023-10-19T15:27:10;10.60;;;3.40;;
5553;SDS011;2800;49.528;8.666;2023-10-19T15:29:35;8.30;;;3.50;;
5553;SDS011;2800;49.528;8.666;2023-10-19T15:32:01;7.90;;;3.67;;